Latest Weather Observations for Low Isles

IDQ60801

Issued at 12:35 pm EST Tuesday 2 September 2014 (issued every 30 minutes, with the page automatically refreshed every 10 minutes)

About weather observations | Map of weather stations | Latest weather observations for QLD | Other Formats
Station Details ID: 031037 Name: LOW ISLES LIGHTHOUSE Lat: -16.38 Lon: 145.56 Height: 2.9 m
Data from the previous 72 hours. | See also: Recent months at Low Isles
Date/Time
EST
Temp
°C
App
Temp
°C
Dew
Point
Rel
Hum
%
Delta-T
°C
Wind Press
QNH
hPa
Press
MSL
hPa
Rain
since 9 am
mm
Dir
 
Spd
km/h
Gust
km/h
Spd
kts
Gust
kts
02/12:30pm 25.2 24.3 14.9 52 6.2 SSE 13 17 7 9 1016.8 - 0.0
02/12:00pm 24.7 23.8 14.8 54 5.9 SSE 13 17 7 9 1017.2 1017.1 0.0
02/11:30am 24.5 23.8 15.4 57 5.5 SSE 13 17 7 9 1017.6 - 0.0
02/11:00am 24.0 22.6 14.4 55 5.7 S 15 19 8 10 1017.9 - 0.0
02/10:30am 23.8 22.6 15.0 57 5.3 S 15 17 8 9 1018.3 - 0.0
02/10:00am 23.3 21.4 14.3 57 5.3 SSE 17 19 9 10 1018.5 - 0.0
02/09:30am 22.8 21.7 15.4 63 4.4 S 15 17 8 9 1018.7 - 0.0
02/09:00am 22.2 21.5 16.5 70 3.5 S 15 19 8 10 1018.4 1018.3 0.0
02/08:30am 21.4 20.6 16.1 72 3.2 S 15 17 8 9 1018.1 - 0.0
02/08:00am 20.9 19.6 15.7 72 3.1 SSW 17 19 9 10 1017.8 - 0.0
02/07:30am 20.6 19.1 16.2 76 2.6 SSW 19 20 10 11 1017.6 - 0.0
02/07:00am 20.5 18.7 15.9 75 2.7 SSW 20 22 11 12 1017.2 - 0.0
02/06:30am 20.5 18.7 15.9 75 2.7 SSW 20 24 11 13 1016.9 - 0.0
02/06:00am 20.7 19.4 15.9 74 2.9 SSW 17 17 9 9 1016.9 1016.8 0.0
02/05:30am 20.7 19.0 15.7 73 3.0 SSW 19 20 10 11 1016.8 - 0.0
02/05:00am 20.7 19.0 15.7 73 3.0 SSW 19 20 10 11 1016.6 - 0.0
02/04:30am 20.9 19.3 16.1 74 2.9 SSW 19 20 10 11 1016.6 - 0.0
02/04:00am 21.1 20.1 16.5 75 2.8 SSW 17 19 9 10 1016.5 - 0.0
02/03:30am 21.2 19.1 16.2 73 3.0 SSW 22 24 12 13 1016.5 - 0.0
02/03:00am 21.3 19.7 16.5 74 2.9 SSW 20 24 11 13 1016.4 1016.3 0.0
02/02:30am 21.3 19.3 16.5 74 2.9 SSW 22 24 12 13 1016.8 - 0.0
02/02:00am 21.4 19.9 16.4 73 3.0 SSW 19 20 10 11 1017.2 - 0.0
02/01:30am 21.4 20.3 16.4 73 3.0 SSW 17 20 9 11 1017.5 - 0.0
02/01:00am 21.6 20.7 16.8 74 2.9 S 17 20 9 11 1017.5 - 0.0
02/12:30am 21.8 20.4 16.5 72 3.2 S 19 20 10 11 1017.5 - 0.0
02/12:00am 21.8 20.5 14.7 64 4.2 SE 15 19 8 10 1017.9 1017.8 0.0
 
Date/Time
EST
Temp
°C
App
Temp
°C
Dew
Point
Rel
Hum
%
Delta-T
°C
Wind Press
QNH
hPa
Press
MSL
hPa
Rain
since 9 am
mm
Dir
 
Spd
km/h
Gust
km/h
Spd
kts
Gust
kts
01/11:30pm 22.0 19.8 14.4 62 4.5 SE 19 24 10 13 1017.9 - 0.0
01/11:00pm 22.1 19.6 14.0 60 4.7 ESE 20 24 11 13 1018.1 - 0.0
01/10:30pm 22.4 20.2 15.0 63 4.4 ESE 20 26 11 14 1018.0 - 0.0
01/10:00pm 22.3 19.3 14.7 62 4.5 ESE 24 28 13 15 1018.1 - 0.0
01/09:30pm 22.5 19.0 14.6 61 4.7 ESE 26 32 14 17 1018.1 - 0.0
01/09:00pm 22.6 18.9 15.0 62 4.5 SE 28 33 15 18 1017.9 1017.8 0.0
01/08:30pm 22.8 18.5 15.4 63 4.4 SE 32 35 17 19 1017.8 - 0.0
01/08:00pm 22.7 19.2 15.5 64 4.3 SE 28 35 15 19 1017.3 - 0.0
01/07:30pm 22.9 18.8 15.0 61 4.7 ESE 30 37 16 20 1016.9 - 0.0
01/07:00pm 22.8 19.1 15.1 62 4.6 ESE 28 35 15 19 1016.5 - 0.0
01/06:30pm 22.8 18.5 15.4 63 4.4 ESE 32 39 17 21 1016.3 - 0.0
01/06:00pm 23.0 18.3 14.8 60 4.9 ESE 33 41 18 22 1015.9 1015.8 0.0
01/05:30pm 23.5 18.8 14.8 58 5.2 ESE 33 41 18 22 1015.5 - 0.0
01/05:00pm 23.6 19.1 15.4 60 4.9 SE 33 39 18 21 1015.2 - 0.0
01/04:30pm 23.8 19.6 17.1 66 4.1 SE 35 43 19 23 1015.0 - 0.0
01/04:00pm 24.2 20.3 17.0 64 4.4 SE 33 41 18 22 1014.7 - 0.0
01/03:30pm 24.8 21.1 17.0 62 4.8 SE 32 39 17 21 1014.6 - 0.0
01/03:00pm 25.3 21.9 16.7 59 5.3 SE 30 39 16 21 1014.9 1014.8 0.0
01/02:30pm 25.9 22.2 17.0 58 5.5 ESE 32 37 17 20 1015.2 - 0.0
01/02:00pm 25.7 21.7 16.3 56 5.8 SE 32 39 17 21 1015.4 - 0.0
01/01:30pm 25.7 22.3 16.8 58 5.5 SE 30 35 16 19 1015.8 - 0.0
01/01:00pm 25.6 21.7 15.6 54 6.1 SE 30 35 16 19 1016.5 - 0.0
01/12:30pm 25.5 22.1 15.8 55 5.9 SE 28 33 15 18 1016.8 - 0.0
01/12:00pm 25.3 22.0 17.0 60 5.1 SE 30 32 16 17 1017.2 1017.1 0.0
01/11:30am 24.3 21.2 16.6 62 4.7 SSE 28 32 15 17 1017.9 - 0.0
01/11:00am 24.0 21.4 16.8 64 4.4 SSE 26 30 14 16 1018.2 - 0.0
01/10:30am 23.8 21.4 17.3 67 4.0 SSE 26 30 14 16 1018.4 - 0.0
01/10:00am 23.3 20.2 16.6 66 4.1 SSE 28 30 15 16 1018.6 - 0.0
01/09:30am 23.0 21.2 16.1 65 4.2 S 20 24 11 13 1018.3 - 0.0
01/09:00am 22.2 20.6 16.0 68 3.7 SSW 19 24 10 13 1018.2 1018.1 0.0
01/08:30am 21.7 20.5 16.2 71 3.3 SSW 17 20 9 11 1017.8 - 0.0
01/08:00am 21.2 20.0 16.2 73 3.0 SSW 17 19 9 10 1017.3 - 0.0
01/07:30am 21.0 19.7 15.8 72 3.1 SSW 17 20 9 11 1017.1 - 0.0
01/07:00am 20.9 19.4 15.4 71 3.3 SSW 17 22 9 12 1016.6 - 0.0
01/06:30am 21.0 19.3 15.8 72 3.1 SSW 19 24 10 13 1016.4 - 0.0
01/06:00am 21.2 19.5 15.7 71 3.3 S 19 24 10 13 1016.2 1016.1 0.0
01/05:30am 21.2 19.2 15.5 70 3.4 SSW 20 24 11 13 1015.9 - 0.0
01/05:00am 21.5 18.6 15.1 67 3.8 S 24 26 13 14 1015.7 - 0.0
01/04:30am 21.6 19.1 16.1 71 3.3 S 24 28 13 15 1015.6 - 0.0
01/04:00am 21.6 19.0 15.9 70 3.4 S 24 28 13 15 1015.7 - 0.0
01/03:30am 21.6 18.4 16.3 72 3.2 S 28 30 15 16 1015.7 - 0.0
01/03:00am 21.3 20.1 17.1 77 2.6 S 19 22 10 12 1015.6 1015.5 0.0
01/02:30am 21.4 19.7 17.2 77 2.6 S 22 32 12 17 1016.0 - 0.0
01/02:00am 21.7 19.3 17.3 76 2.7 S 26 30 14 16 1016.2 - 0.0
01/01:30am 21.6 19.1 17.0 75 2.8 S 26 28 14 15 1016.4 - 0.0
01/01:00am 21.7 19.2 17.1 75 2.8 S 26 30 14 16 1016.6 - 0.0
01/12:30am 21.6 19.6 17.4 77 2.6 S 24 28 13 15 1016.5 - 0.0
01/12:00am 21.6 19.9 17.2 76 2.7 S 22 26 12 14 1016.9 1016.8 0.0
 
Date/Time
EST
Temp
°C
App
Temp
°C
Dew
Point
Rel
Hum
%
Delta-T
°C
Wind Press
QNH
hPa
Press
MSL
hPa
Rain
since 9 am
mm
Dir
 
Spd
km/h
Gust
km/h
Spd
kts
Gust
kts
31/11:30pm 21.8 19.8 17.4 76 2.7 S 24 26 13 14 1017.1 - 0.0
31/11:00pm 21.8 20.2 17.4 76 2.7 S 22 26 12 14 1017.2 - 0.0
31/10:30pm 22.1 20.7 17.9 77 2.6 S 22 26 12 14 1017.2 - 0.0
31/10:00pm 22.4 19.0 16.7 70 3.5 SE 30 35 16 19 1017.0 - 0.0
31/09:30pm 22.4 18.5 16.4 69 3.6 SE 32 37 17 20 1017.0 - 0.0
31/09:00pm 22.3 18.2 15.9 67 3.8 SE 32 39 17 21 1016.8 1016.7 0.0
31/08:30pm 22.3 18.1 16.1 68 3.7 SE 33 39 18 21 1016.6 - 0.0
31/08:00pm 22.3 18.5 17.2 73 3.1 SE 33 41 18 22 1016.3 - 0.0
31/07:30pm 22.3 18.4 17.0 72 3.2 SE 33 41 18 22 1015.9 - 0.0
31/07:00pm 22.4 18.6 17.3 73 3.1 SE 33 41 18 22 1015.6 - 0.0
31/06:30pm 22.4 18.0 15.7 66 4.0 SE 33 41 18 22 1015.0 - 0.0
31/06:00pm 22.6 18.3 15.9 66 4.0 SE 33 41 18 22 1014.7 1014.6 0.0
31/05:30pm 23.1 18.9 16.2 65 4.2 SE 33 43 18 23 1014.3 - 0.0
31/05:00pm 23.4 19.3 16.4 64 4.3 ESE 33 43 18 23 1014.0 - 0.0
31/04:30pm 23.8 19.4 15.6 60 4.9 ESE 33 41 18 22 1013.9 - 0.0
31/04:00pm 24.3 19.2 14.7 55 5.7 SE 35 43 19 23 1013.8 - 0.0
31/03:30pm 24.4 19.8 16.1 60 5.1 SE 35 44 19 24 1013.7 - 0.0
31/03:00pm 25.2 20.9 16.9 60 5.1 ESE 35 43 19 23 1013.9 1013.8 0.0
31/02:30pm 25.0 21.3 17.0 61 5.0 SE 32 41 17 22 1014.1 - 0.0
31/02:00pm 25.4 21.1 15.4 54 6.0 ESE 32 41 17 22 1014.3 - 0.0
31/01:30pm 25.3 20.8 16.4 57 5.5 ESE 35 43 19 23 1014.6 - 0.0
31/01:00pm 25.1 21.2 17.0 60 5.0 SE 33 41 18 22 1015.1 - 0.0
31/12:30pm 25.6 22.0 17.3 60 5.2 SE 32 39 17 21 1015.5 - 0.0
31/12:00pm 24.9 21.3 17.1 62 4.8 SE 32 35 17 19 1015.9 1015.8 0.0
31/11:30am 24.8 21.5 17.0 62 4.8 SE 30 33 16 18 1016.5 - 0.0
31/11:00am 24.5 21.3 17.2 63 4.5 SE 30 33 16 18 1017.0 - 0.0
31/10:30am 23.5 20.3 16.3 64 4.4 SSE 28 33 15 18 1017.4 - 0.0
31/10:00am 23.1 20.4 16.6 67 4.0 SSE 26 30 14 16 1017.5 - 0.0
31/09:30am 22.9 20.6 16.7 68 3.8 SSE 24 28 13 15 1017.6 - 0.0
31/09:00am 22.2 19.6 16.0 68 3.7 S 24 28 13 15 1017.6 1017.5 0.0
31/08:30am 22.0 20.2 16.1 69 3.6 S 20 26 11 14 1017.3 - 0.0
31/08:00am 21.3 20.3 16.5 74 2.9 SSW 17 19 9 10 1017.0 - 0.0
31/07:30am 20.9 19.6 15.9 73 3.0 SSW 17 19 9 10 1016.8 - 0.0
31/07:00am 20.9 19.6 15.9 73 3.0 SSW 17 19 9 10 1016.5 - 0.0
31/06:30am 20.6 19.2 15.6 73 3.0 SSW 17 20 9 11 1016.2 - 0.0
31/06:00am 20.6 19.2 15.6 73 3.0 SSW 17 20 9 11 1015.9 1015.8 0.0
31/05:30am 21.0 19.4 16.0 73 3.0 SSW 19 22 10 12 1015.7 - 0.0
31/05:00am 21.2 18.1 15.7 71 3.3 S 26 32 14 17 1015.3 - 0.0
31/04:30am 21.5 17.7 15.8 70 3.4 S 30 33 16 18 1015.2 - 0.0
31/04:00am 21.6 18.0 16.3 72 3.2 SSE 30 33 16 18 1015.1 - 0.0
31/03:30am 21.7 18.8 17.1 75 2.8 SSE 28 32 15 17 1015.1 - 0.0
31/03:00am 21.7 18.9 17.3 76 2.7 SSE 28 32 15 17 1015.0 1014.9 0.0
31/02:30am 21.8 19.7 17.2 75 2.8 SSE 24 28 13 15 1015.3 - 0.0
31/02:00am 21.8 19.3 17.0 74 2.9 SSE 26 28 14 15 1015.5 - 0.0
31/01:30am 22.0 19.6 17.4 75 2.8 SSE 26 32 14 17 1016.0 - 0.0
31/01:00am 22.0 19.7 17.6 76 2.7 S 26 28 14 15 1016.5 - 0.0
31/12:30am 22.2 20.4 17.8 76 2.7 S 24 28 13 15 1016.7 - 0.0
31/12:00am 22.7 20.2 18.0 75 2.9 SE 28 33 15 18 1017.0 1016.9 0.0
 
Date/Time
EST
Temp
°C
App
Temp
°C
Dew
Point
Rel
Hum
%
Delta-T
°C
Wind Press
QNH
hPa
Press
MSL
hPa
Rain
since 9 am
mm
Dir
 
Spd
km/h
Gust
km/h
Spd
kts
Gust
kts
30/11:30pm 22.8 19.1 16.1 66 4.1 SE 30 35 16 19 1017.1 - 0.0
30/11:00pm 22.7 19.1 15.3 63 4.4 ESE 28 35 15 19 1017.3 - 0.0
30/10:30pm 22.7 18.6 16.0 66 4.0 ESE 32 41 17 22 1017.2 - 0.0
30/10:00pm 22.8 19.0 16.6 68 3.8 ESE 32 39 17 21 1017.3 - 0.0
30/09:30pm 22.6 18.5 16.4 68 3.8 SE 33 39 18 21 1017.3 - 0.0
30/09:00pm 22.4 18.9 17.8 75 2.9 SE 33 41 18 22 1017.3 1017.2 0.0
30/08:30pm 22.4 19.0 16.7 70 3.5 SE 30 37 16 20 1017.3 - 0.0
30/08:00pm 22.2 18.8 17.6 75 2.8 SE 32 41 17 22 1017.1 - 0.0
30/07:30pm 22.2 18.6 17.3 74 3.0 SE 32 39 17 21 1017.0 - 0.0
30/07:00pm 22.4 18.9 17.8 75 2.9 SE 33 43 18 23 1016.6 - 0.0
30/06:30pm 22.4 18.6 17.3 73 3.1 SE 33 43 18 23 1016.2 - 0.0
30/06:00pm 22.5 18.4 16.5 69 3.6 ESE 33 43 18 23 1015.8 1015.7 0.0
30/05:30pm 22.9 19.3 17.1 70 3.6 SE 32 43 17 23 1015.7 - 0.0
30/05:00pm 23.3 19.3 16.1 64 4.4 SE 32 41 17 22 1015.7 - 0.0
30/04:30pm 23.4 18.9 15.5 61 4.7 SE 33 39 18 21 1015.2 - 0.0
30/04:00pm 24.2 19.3 14.3 54 5.8 ESE 33 43 18 23 1015.3 - 0.0
30/03:30pm 24.2 18.8 14.0 53 6.0 SE 35 43 19 23 1015.0 - 0.0
30/03:00pm 24.3 18.3 14.4 54 5.9 SE 39 44 21 24 1015.5 1015.4 0.0
30/02:30pm 24.0 19.1 15.2 58 5.3 SE 35 43 19 23 1015.6 - 0.0
30/02:00pm 24.1 19.3 15.6 59 5.1 SE 35 43 19 23 1016.0 - 0.0
30/01:30pm 23.7 19.1 16.0 62 4.7 SE 35 41 19 22 1016.5 - 0.0
30/01:00pm 23.7 19.1 16.0 62 4.7 SE 35 39 19 21 1017.2 - 0.0

Other Formats:

Comma delimited format used in spreadsheet applications
http://www.bom.gov.au/fwo/IDQ60801/IDQ60801.94285.axf

JavaScript Object Notation format (JSON) in row-major order
http://www.bom.gov.au/fwo/IDQ60801/IDQ60801.94285.json